Time;durP1;ratioP1;P1;durP2;ratioP2;P2;SDS_P1;SDS_P2;PMS_P1;PMS_P2;Temp;Humidity;BMP_temperature;BMP_pressure;BME280_temperature;BME280_humidity;BME280_pressure;Samples;Min_cycle;Max_cycle;Signal;HPM_P1;HPM_P2
2023/05/06 00:00:07;;;;;;;66.55;29.70;;;11.10;99.90;;;;;;5095556;28;20048;-24
2023/05/06 00:02:33;;;;;;;64.82;30.48;;;11.00;99.90;;;;;;5095565;28;20561;-23
2023/05/06 00:04:58;;;;;;;49.55;25.00;;;10.90;99.90;;;;;;5077697;28;20043;-23
2023/05/06 00:07:24;;;;;;;55.20;27.20;;;10.90;99.90;;;;;;5094310;28;20174;-24
2023/05/06 00:09:50;;;;;;;66.32;30.45;;;11.00;99.90;;;;;;5095363;28;20051;-23
2023/05/06 00:12:15;;;;;;;77.75;33.50;;;10.90;99.90;;;;;;5095686;28;20097;-24
2023/05/06 00:14:41;;;;;;;75.38;33.20;;;10.80;99.90;;;;;;5095295;28;20052;-23
2023/05/06 00:17:07;;;;;;;76.45;33.15;;;10.80;99.90;;;;;;5095098;28;20466;-24
2023/05/06 00:19:32;;;;;;;50.20;27.08;;;10.70;99.90;;;;;;5095169;28;20127;-23
2023/05/06 00:21:58;;;;;;;46.08;27.25;;;10.70;99.90;;;;;;5095498;28;20355;-23
2023/05/06 00:24:24;;;;;;;46.67;26.52;;;10.70;99.90;;;;;;5095428;28;20083;-23
2023/05/06 00:26:50;;;;;;;42.95;25.17;;;10.70;99.90;;;;;;5094559;28;20545;-23
2023/05/06 00:29:16;;;;;;;51.80;28.13;;;10.70;99.90;;;;;;5095022;28;20036;-23
2023/05/06 00:31:41;;;;;;;68.63;30.75;;;10.80;99.90;;;;;;5095262;28;20087;-24
2023/05/06 00:34:08;;;;;;;64.57;31.50;;;10.80;99.90;;;;;;5094919;28;20072;-24
2023/05/06 00:36:35;;;;;;;48.97;27.73;;;10.90;99.90;;;;;;5094841;28;20056;-23
2023/05/06 00:39:01;;;;;;;59.33;28.65;;;10.90;99.90;;;;;;5094755;28;20091;-23
2023/05/06 00:41:30;;;;;;;57.83;28.17;;;10.90;99.90;;;;;;5095338;28;20079;-23
2023/05/06 00:43:56;;;;;;;62.17;30.25;;;10.80;99.90;;;;;;5095016;28;20055;-23
2023/05/06 00:46:22;;;;;;;59.42;29.63;;;10.90;99.90;;;;;;5093731;28;20460;-24
2023/05/06 00:48:47;;;;;;;51.30;26.70;;;10.90;99.90;;;;;;5094817;28;20097;-24
2023/05/06 00:51:14;;;;;;;62.15;29.10;;;11.00;99.90;;;;;;5077039;28;20048;-24
2023/05/06 00:53:40;;;;;;;54.70;28.92;;;10.90;99.90;;;;;;5094594;28;20056;-24
2023/05/06 00:56:06;;;;;;;55.90;28.35;;;10.90;99.90;;;;;;5094233;28;20565;-23
2023/05/06 00:58:33;;;;;;;52.08;27.25;;;11.00;99.90;;;;;;5094377;28;20471;-23
2023/05/06 01:01:00;;;;;;;48.88;26.10;;;10.90;99.90;;;;;;5077399;28;20091;-24
2023/05/06 01:03:26;;;;;;;51.83;27.38;;;11.00;99.90;;;;;;5094942;28;20047;-24
2023/05/06 01:06:45;;;;;;;51.75;27.42;;;11.00;99.90;;;;;;5094353;28;20474;-25
2023/05/06 01:09:18;;;;;;;49.53;24.48;;;11.00;99.90;;;;;;5051774;28;20080;-24
2023/05/06 01:11:57;;;;;;;52.75;26.50;;;10.90;99.90;;;;;;5090961;28;20051;-23
2023/05/06 01:14:35;;;;;;;58.53;28.27;;;10.70;99.90;;;;;;5094238;28;20512;-23
2023/05/06 01:17:03;;;;;;;65.85;30.00;;;10.60;99.90;;;;;;5094506;28;20142;-23
2023/05/06 01:19:40;;;;;;;47.17;25.55;;;10.60;99.90;;;;;;5094096;28;20082;-23
2023/05/06 01:22:07;;;;;;;78.75;32.47;;;10.50;99.90;;;;;;5094235;28;20444;-23
2023/05/06 01:24:41;;;;;;;62.47;27.45;;;10.50;99.90;;;;;;5094056;28;20108;-23
2023/05/06 01:27:08;;;;;;;55.58;26.10;;;10.50;99.90;;;;;;5094917;28;20055;-24
2023/05/06 01:29:36;;;;;;;49.20;23.88;;;10.50;99.90;;;;;;5093994;28;20040;-23
2023/05/06 01:32:27;;;;;;;70.82;29.48;;;10.50;99.90;;;;;;5092698;28;20051;-24
2023/05/06 01:35:08;;;;;;;74.38;28.88;;;10.50;99.90;;;;;;5093646;28;20087;-23
2023/05/06 01:38:02;;;;;;;55.63;27.60;;;10.60;99.90;;;;;;5093909;28;20055;-24
2023/05/06 01:40:29;;;;;;;45.22;26.70;;;10.70;99.90;;;;;;5094029;28;20136;-23
2023/05/06 01:42:56;;;;;;;51.70;27.40;;;10.50;99.90;;;;;;5094660;28;20044;-23
2023/05/06 01:45:27;;;;;;;108.75;36.40;;;10.40;99.90;;;;;;5093835;28;20083;-23
2023/05/06 01:47:53;;;;;;;48.45;25.80;;;10.40;99.90;;;;;;5094109;28;20393;-23
2023/05/06 01:50:19;;;;;;;55.30;28.50;;;10.40;99.90;;;;;;5093638;28;20126;-23
2023/05/06 01:52:54;;;;;;;64.03;31.73;;;10.20;99.90;;;;;;5093709;28;20128;-23
2023/05/06 01:55:20;;;;;;;66.38;31.77;;;10.30;99.90;;;;;;5093747;28;20044;-24
2023/05/06 01:57:45;;;;;;;71.43;33.17;;;10.20;99.90;;;;;;5092429;28;20105;-23
2023/05/06 02:00:11;;;;;;;123.68;39.35;;;10.20;99.90;;;;;;5093640;28;20063;-23
2023/05/06 02:02:37;;;;;;;100.95;36.92;;;10.10;99.90;;;;;;5094167;28;20040;-24
2023/05/06 02:05:03;;;;;;;152.98;42.38;;;10.20;99.90;;;;;;5093869;28;20086;-24
2023/05/06 02:07:29;;;;;;;340.52;44.25;;;10.20;99.90;;;;;;5093664;28;20077;-24
2023/05/06 02:09:54;;;;;;;628.22;48.45;;;10.10;99.90;;;;;;5093539;28;20044;-24
2023/05/06 02:12:20;;;;;;;412.27;39.95;;;10.10;99.90;;;;;;5093540;28;20044;-23
2023/05/06 02:14:46;;;;;;;529.85;55.47;;;10.00;99.90;;;;;;5092588;28;20123;-24
2023/05/06 02:17:11;;;;;;;431.45;49.40;;;10.10;99.90;;;;;;5093525;28;20051;-23
2023/05/06 02:19:37;;;;;;;265.08;40.35;;;10.10;99.90;;;;;;5092166;28;20091;-24
2023/05/06 02:22:03;;;;;;;309.48;46.03;;;10.10;99.90;;;;;;5092692;28;20056;-23
2023/05/06 02:24:28;;;;;;;156.40;33.42;;;10.00;99.90;;;;;;5093548;28;20079;-23
2023/05/06 02:26:54;;;;;;;176.10;37.53;;;9.90;99.90;;;;;;5092432;28;20127;-24
2023/05/06 02:29:20;;;;;;;149.57;38.72;;;10.00;99.90;;;;;;5093409;28;20097;-24
2023/05/06 02:31:45;;;;;;;178.68;44.03;;;9.90;99.90;;;;;;5093316;28;20496;-24
2023/05/06 02:34:11;;;;;;;76.47;32.75;;;9.90;99.90;;;;;;5092193;28;20048;-23
2023/05/06 02:36:37;;;;;;;91.53;35.20;;;10.00;99.90;;;;;;5076354;28;20052;-24
2023/05/06 02:39:03;;;;;;;82.18;34.20;;;9.80;99.90;;;;;;5093230;28;20044;-23
2023/05/06 02:41:29;;;;;;;163.65;38.33;;;9.90;99.90;;;;;;5094054;28;20052;-24
2023/05/06 02:43:55;;;;;;;129.75;40.25;;;9.70;99.90;;;;;;5093313;28;20486;-23
2023/05/06 02:46:21;;;;;;;89.13;34.30;;;9.70;99.90;;;;;;5093520;28;20055;-24
2023/05/06 02:48:46;;;;;;;83.40;33.78;;;9.80;99.90;;;;;;5093837;28;20406;-23
2023/05/06 02:51:12;;;;;;;86.72;32.88;;;9.80;99.90;;;;;;5096380;28;20407;-24
2023/05/06 02:53:38;;;;;;;145.80;40.15;;;9.60;99.90;;;;;;5097171;28;20044;-23
2023/05/06 02:56:04;;;;;;;64.30;30.27;;;9.70;99.90;;;;;;5097126;28;20044;-23
2023/05/06 02:58:30;;;;;;;77.68;33.03;;;9.70;99.90;;;;;;5096709;28;20048;-23
2023/05/06 03:00:56;;;;;;;131.23;41.13;;;9.50;99.90;;;;;;5095609;28;20453;-23
2023/05/06 03:03:22;;;;;;;62.25;29.92;;;9.60;99.90;;;;;;5096659;28;20058;-23
2023/05/06 03:05:47;;;;;;;78.18;33.70;;;9.50;99.90;;;;;;5095951;28;20040;-24
2023/05/06 03:08:13;;;;;;;141.18;45.75;;;9.60;99.90;;;;;;5095389;28;20083;-24
2023/05/06 03:10:39;;;;;;;72.97;31.40;;;9.60;99.90;;;;;;5095380;28;20474;-24
2023/05/06 03:13:05;;;;;;;73.38;33.97;;;9.60;99.90;;;;;;5096151;28;20050;-24
2023/05/06 03:15:31;;;;;;;82.50;37.60;;;9.80;99.90;;;;;;5097001;28;20139;-23
2023/05/06 03:17:56;;;;;;;70.68;33.80;;;9.80;99.90;;;;;;5095432;28;20056;-24
2023/05/06 03:20:22;;;;;;;116.15;42.85;;;9.90;99.90;;;;;;5096335;28;20539;-24
2023/05/06 03:22:49;;;;;;;77.18;36.03;;;9.80;99.90;;;;;;5096920;28;20048;-24
2023/05/06 03:25:14;;;;;;;86.18;38.20;;;9.90;99.90;;;;;;5096309;28;20127;-24
2023/05/06 03:27:40;;;;;;;90.78;37.17;;;10.00;99.90;;;;;;5061487;28;20135;-24
2023/05/06 03:30:07;;;;;;;91.40;37.17;;;10.00;99.90;;;;;;5095238;28;20489;-24
2023/05/06 03:32:33;;;;;;;107.78;40.97;;;10.00;99.90;;;;;;5096107;28;20044;-24
2023/05/06 03:34:59;;;;;;;90.55;38.70;;;9.80;99.90;;;;;;5096156;28;20048;-24
2023/05/06 03:37:25;;;;;;;86.07;36.42;;;9.80;99.90;;;;;;5095076;28;20402;-24
2023/05/06 03:39:50;;;;;;;104.05;40.20;;;9.70;99.90;;;;;;5095929;28;20040;-24
2023/05/06 03:42:16;;;;;;;75.45;34.20;;;9.80;99.90;;;;;;5096587;28;20048;-24
2023/05/06 03:44:42;;;;;;;95.13;37.30;;;9.70;99.90;;;;;;5095927;28;20054;-24
2023/05/06 03:47:07;;;;;;;93.57;37.60;;;9.70;99.90;;;;;;5094926;28;20123;-24
2023/05/06 03:49:33;;;;;;;111.80;40.00;;;9.70;99.90;;;;;;5094347;28;20054;-24
2023/05/06 03:51:59;;;;;;;111.63;42.45;;;9.60;99.90;;;;;;5078526;28;20052;-24
2023/05/06 03:54:25;;;;;;;86.20;36.50;;;9.70;99.90;;;;;;5095721;28;20118;-25
2023/05/06 03:56:50;;;;;;;65.07;32.22;;;9.70;99.90;;;;;;5095646;28;20071;-25
2023/05/06 03:59:16;;;;;;;79.13;34.45;;;9.60;99.90;;;;;;5095610;28;20127;-24
2023/05/06 04:01:42;;;;;;;71.30;33.35;;;9.70;99.90;;;;;;5094324;28;20054;-24
2023/05/06 04:04:07;;;;;;;71.18;31.48;;;9.60;99.90;;;;;;5095794;28;20048;-24
2023/05/06 04:06:33;;;;;;;61.30;30.08;;;9.60;99.90;;;;;;5094188;28;20464;-25
2023/05/06 04:08:58;;;;;;;56.88;29.73;;;9.60;99.90;;;;;;5094075;28;20101;-24
2023/05/06 04:11:24;;;;;;;61.00;30.13;;;9.80;99.90;;;;;;5095599;28;20051;-24
2023/05/06 04:13:50;;;;;;;61.25;30.35;;;9.70;99.90;;;;;;5077304;28;20448;-24
2023/05/06 04:16:16;;;;;;;78.45;35.33;;;9.90;99.90;;;;;;5096041;28;20048;-24
2023/05/06 04:18:42;;;;;;;81.35;34.55;;;9.80;99.90;;;;;;5094744;28;20035;-24
2023/05/06 04:21:10;;;;;;;61.28;29.73;;;9.80;99.90;;;;;;5095204;28;20517;-24
2023/05/06 04:23:37;;;;;;;64.97;31.98;;;9.80;99.90;;;;;;5093419;28;20184;-24
2023/05/06 04:26:03;;;;;;;67.00;32.25;;;9.90;99.90;;;;;;5093827;28;20524;-24
2023/05/06 04:28:28;;;;;;;76.13;33.13;;;9.80;99.90;;;;;;5095015;28;20048;-25
2023/05/06 04:30:54;;;;;;;75.22;32.53;;;9.80;99.90;;;;;;5094986;28;20051;-25
2023/05/06 04:33:21;;;;;;;63.67;31.70;;;9.80;99.90;;;;;;5095203;28;20048;-25
2023/05/06 04:35:53;;;;;;;63.13;30.50;;;9.90;99.90;;;;;;5093593;28;20048;-25
2023/05/06 04:38:24;;;;;;;64.60;31.05;;;9.90;99.90;;;;;;5076831;28;20127;-24
2023/05/06 04:40:50;;;;;;;56.30;28.83;;;9.80;99.90;;;;;;5077273;28;20082;-24
2023/05/06 04:43:17;;;;;;;54.60;28.70;;;10.00;99.90;;;;;;5095059;28;20098;-24
2023/05/06 04:45:48;;;;;;;56.00;30.50;;;9.90;99.90;;;;;;5093522;28;20536;-24
2023/05/06 04:48:18;;;;;;;78.95;32.80;;;10.10;99.90;;;;;;5093683;28;20051;-24
2023/05/06 04:50:45;;;;;;;59.28;29.55;;;10.00;99.90;;;;;;5093254;28;20048;-24
2023/05/06 04:53:11;;;;;;;62.92;30.95;;;10.30;99.90;;;;;;5095140;28;20048;-25
2023/05/06 04:55:37;;;;;;;53.10;27.55;;;10.20;99.90;;;;;;5093305;28;20146;-24
2023/05/06 04:58:03;;;;;;;58.00;28.17;;;10.30;99.90;;;;;;5094392;28;20529;-25
2023/05/06 05:00:29;;;;;;;50.83;26.45;;;10.60;99.90;;;;;;5094418;28;20056;-24
2023/05/06 05:02:55;;;;;;;50.58;26.02;;;10.40;99.90;;;;;;5094412;28;20086;-24
2023/05/06 05:05:20;;;;;;;52.60;26.98;;;10.80;99.90;;;;;;5094359;28;20040;-24
2023/05/06 05:07:46;;;;;;;66.38;29.70;;;10.70;99.90;;;;;;5093977;28;20172;-24
2023/05/06 05:10:12;;;;;;;56.83;29.65;;;10.60;99.90;;;;;;5094788;28;20126;-24
2023/05/06 05:12:38;;;;;;;56.97;29.25;;;10.80;99.90;;;;;;5092853;28;20097;-24
2023/05/06 05:15:04;;;;;;;70.45;30.42;;;11.00;99.90;;;;;;5094210;28;20131;-25
2023/05/06 05:17:30;;;;;;;65.57;30.90;;;10.90;99.90;;;;;;5094895;28;20079;-25
2023/05/06 05:19:55;;;;;;;59.55;31.42;;;11.00;99.90;;;;;;5093975;28;20102;-25
2023/05/06 05:22:21;;;;;;;55.63;29.35;;;11.20;99.90;;;;;;5093741;28;20097;-24
2023/05/06 05:24:47;;;;;;;57.20;27.42;;;11.00;99.90;;;;;;5093491;28;20136;-25
2023/05/06 05:27:12;;;;;;;54.15;27.30;;;11.30;99.90;;;;;;5094080;28;20051;-24
2023/05/06 05:29:38;;;;;;;65.43;31.20;;;11.00;99.90;;;;;;5093896;28;20203;-24
2023/05/06 05:32:04;;;;;;;59.50;29.80;;;11.00;99.90;;;;;;5093920;28;20059;-25
2023/05/06 05:34:30;;;;;;;61.55;30.58;;;11.20;99.90;;;;;;5094166;28;20067;-24
2023/05/06 05:36:57;;;;;;;64.07;29.83;;;11.30;99.90;;;;;;5059259;28;20044;-25
2023/05/06 05:39:22;;;;;;;65.43;30.15;;;11.10;99.90;;;;;;5092536;28;20044;-24
2023/05/06 05:41:48;;;;;;;59.50;31.05;;;11.30;99.90;;;;;;5093776;28;20397;-25
2023/05/06 05:44:14;;;;;;;59.03;28.92;;;11.30;99.90;;;;;;5093821;28;20090;-24
2023/05/06 05:46:41;;;;;;;49.63;27.77;;;11.20;99.90;;;;;;5093693;28;20051;-25
2023/05/06 05:49:06;;;;;;;63.22;30.50;;;11.40;99.90;;;;;;5094083;28;20073;-25
2023/05/06 05:51:32;;;;;;;56.33;28.42;;;11.40;99.90;;;;;;5092744;28;20051;-25
2023/05/06 05:53:58;;;;;;;56.55;28.73;;;11.30;99.90;;;;;;5093924;28;20044;-25
2023/05/06 05:56:24;;;;;;;54.55;29.25;;;11.30;99.90;;;;;;5093566;28;20048;-24
2023/05/06 05:58:50;;;;;;;57.33;30.10;;;11.60;99.90;;;;;;5092307;28;20044;-25
2023/05/06 06:01:16;;;;;;;54.50;28.70;;;11.70;99.90;;;;;;5093632;28;20086;-24
2023/05/06 06:03:42;;;;;;;64.93;31.10;;;11.60;99.90;;;;;;5093549;28;20124;-25
2023/05/06 06:06:08;;;;;;;59.80;29.15;;;11.70;99.90;;;;;;5093470;28;20083;-25
2023/05/06 06:08:34;;;;;;;52.55;29.15;;;11.60;99.90;;;;;;5093269;28;20052;-24
2023/05/06 06:11:02;;;;;;;56.88;31.02;;;11.70;99.90;;;;;;5092252;28;20048;-24
2023/05/06 06:13:29;;;;;;;64.15;32.90;;;11.70;99.90;;;;;;5093469;28;20131;-24
2023/05/06 06:15:55;;;;;;;62.67;31.23;;;11.90;99.90;;;;;;5092186;28;20040;-24
2023/05/06 06:18:21;;;;;;;50.05;28.02;;;11.90;99.90;;;;;;5093381;28;20098;-24
2023/05/06 06:20:47;;;;;;;55.05;31.23;;;11.80;99.90;;;;;;5075608;28;20547;-24
2023/05/06 06:23:12;;;;;;;50.88;26.33;;;12.10;99.90;;;;;;5093578;28;20060;-24
2023/05/06 06:25:38;;;;;;;47.65;26.80;;;12.00;99.90;;;;;;5095837;28;20413;-24
2023/05/06 06:28:04;;;;;;;45.65;26.58;;;12.10;99.90;;;;;;5097998;28;20480;-24
2023/05/06 06:30:30;;;;;;;45.67;26.40;;;12.00;99.90;;;;;;5097136;28;20044;-24
2023/05/06 06:32:57;;;;;;;43.78;25.85;;;12.30;99.90;;;;;;5078968;28;20039;-25
2023/05/06 06:35:23;;;;;;;46.53;26.17;;;12.40;99.90;;;;;;5097056;28;20553;-24
2023/05/06 06:37:49;;;;;;;48.92;28.52;;;12.40;99.90;;;;;;5095752;28;20127;-24
2023/05/06 06:40:15;;;;;;;45.50;26.30;;;12.50;99.90;;;;;;5096943;28;20135;-24
2023/05/06 06:42:41;;;;;;;42.90;24.98;;;12.80;99.90;;;;;;5096065;28;20052;-24
2023/05/06 06:45:08;;;;;;;41.28;23.70;;;12.70;99.90;;;;;;5096865;28;20510;-24
2023/05/06 06:47:34;;;;;;;39.30;22.85;;;12.80;99.90;;;;;;5097303;28;20091;-24
2023/05/06 06:50:00;;;;;;;39.42;22.88;;;13.00;99.90;;;;;;5096751;28;20059;-24
2023/05/06 06:52:26;;;;;;;39.05;22.77;;;13.10;99.90;;;;;;5095765;28;20048;-24
2023/05/06 06:54:51;;;;;;;34.17;22.73;;;13.00;99.90;;;;;;5097732;28;20052;-24
2023/05/06 06:57:17;;;;;;;43.70;24.23;;;12.90;99.90;;;;;;5095508;28;20494;-24
2023/05/06 06:59:43;;;;;;;32.90;20.73;;;12.80;99.90;;;;;;5096453;28;20116;-24
2023/05/06 07:02:09;;;;;;;35.88;21.23;;;12.80;99.90;;;;;;5097150;28;20040;-24
2023/05/06 07:04:35;;;;;;;35.95;22.05;;;12.70;99.90;;;;;;5097025;28;20052;-23
2023/05/06 07:07:01;;;;;;;35.15;22.90;;;12.70;99.90;;;;;;5097007;28;20052;-24
2023/05/06 07:09:26;;;;;;;38.10;22.92;;;12.70;99.90;;;;;;5096928;28;20044;-23
2023/05/06 07:11:52;;;;;;;46.13;25.13;;;12.80;99.90;;;;;;5096364;28;20040;-24
2023/05/06 07:14:19;;;;;;;31.80;20.92;;;12.70;99.90;;;;;;5095226;28;20040;-24
2023/05/06 07:16:44;;;;;;;41.05;26.20;;;12.80;99.90;;;;;;5095348;28;20543;-24
2023/05/06 07:19:10;;;;;;;44.47;26.58;;;12.70;99.90;;;;;;5096300;28;20040;-24
2023/05/06 07:21:36;;;;;;;39.58;23.92;;;12.90;99.90;;;;;;5096275;28;20556;-24
2023/05/06 07:24:02;;;;;;;36.95;22.40;;;13.10;99.90;;;;;;5078285;28;20060;-24
2023/05/06 07:26:27;;;;;;;39.80;23.33;;;13.20;99.90;;;;;;5096257;28;20044;-24
2023/05/06 07:28:53;;;;;;;35.90;20.88;;;13.20;99.90;;;;;;5094889;28;20090;-24
2023/05/06 07:31:19;;;;;;;35.28;22.02;;;13.40;99.90;;;;;;5095658;28;20040;-24
2023/05/06 07:33:48;;;;;;;35.05;21.13;;;13.30;99.90;;;;;;5078071;28;20052;-24
2023/05/06 07:36:14;;;;;;;38.40;22.10;;;13.40;99.90;;;;;;5076926;28;20044;-24
2023/05/06 07:38:40;;;;;;;33.13;19.40;;;13.60;99.90;;;;;;5095315;28;20096;-24
2023/05/06 07:41:06;;;;;;;33.40;20.75;;;14.00;99.90;;;;;;5095209;28;20382;-24
2023/05/06 07:43:32;;;;;;;30.50;18.02;;;14.00;99.90;;;;;;5095972;28;20048;-24
2023/05/06 07:46:01;;;;;;;26.45;17.48;;;14.20;99.90;;;;;;5096156;28;20513;-25
2023/05/06 07:48:31;;;;;;;24.73;16.02;;;14.30;99.90;;;;;;5077630;28;20050;-26
2023/05/06 07:50:58;;;;;;;18.83;13.25;;;14.50;99.90;;;;;;5094820;28;20127;-25
2023/05/06 07:53:24;;;;;;;18.35;13.10;;;14.50;99.90;;;;;;5095727;28;20062;-25
2023/05/06 07:55:51;;;;;;;15.85;11.88;;;14.60;99.90;;;;;;5094355;28;20088;-24
2023/05/06 07:58:17;;;;;;;17.17;11.50;;;14.70;99.90;;;;;;5095516;28;20066;-24
2023/05/06 08:00:43;;;;;;;17.90;15.13;;;14.70;99.90;;;;;;5077546;28;20055;-24
2023/05/06 08:03:09;;;;;;;13.48;10.60;;;14.70;99.90;;;;;;5095537;28;20044;-24
2023/05/06 08:05:34;;;;;;;12.38;10.38;;;14.70;99.90;;;;;;5094843;28;20131;-24
2023/05/06 08:08:00;;;;;;;13.82;11.25;;;14.70;99.90;;;;;;5094255;28;20050;-24
2023/05/06 08:10:26;;;;;;;16.08;11.32;;;14.90;99.90;;;;;;5094391;28;20055;-24
2023/05/06 08:12:52;;;;;;;14.60;12.02;;;15.00;99.90;;;;;;5094119;28;20126;-24
2023/05/06 08:15:18;;;;;;;15.13;11.77;;;15.00;99.90;;;;;;5094080;28;20066;-24
2023/05/06 08:17:43;;;;;;;16.65;12.77;;;15.20;99.90;;;;;;5095332;28;20059;-24
2023/05/06 08:20:10;;;;;;;15.38;11.10;;;15.30;99.90;;;;;;5095138;28;20039;-24
2023/05/06 08:22:36;;;;;;;15.68;11.82;;;15.40;99.90;;;;;;5095021;28;20056;-24
2023/05/06 08:25:01;;;;;;;15.35;11.50;;;15.60;99.90;;;;;;5095897;28;20055;-25
2023/05/06 08:27:27;;;;;;;14.68;11.05;;;15.70;99.90;;;;;;5077694;28;20051;-24
2023/05/06 08:29:53;;;;;;;14.60;10.75;;;15.70;99.90;;;;;;5095258;28;20044;-25
2023/05/06 08:32:19;;;;;;;14.23;11.27;;;15.90;99.90;;;;;;5095442;28;20421;-25
2023/05/06 08:34:44;;;;;;;12.75;10.98;;;16.00;99.90;;;;;;5093633;28;20048;-24
2023/05/06 08:37:10;;;;;;;13.02;11.13;;;16.10;99.90;;;;;;5095417;28;20048;-25
2023/05/06 08:39:36;;;;;;;12.57;10.38;;;16.20;99.90;;;;;;5094637;28;20043;-24
2023/05/06 08:42:02;;;;;;;11.13;8.85;;;16.30;99.90;;;;;;5094740;28;20101;-24
2023/05/06 08:44:28;;;;;;;11.63;9.27;;;16.30;99.90;;;;;;5094627;28;20127;-24
2023/05/06 08:46:54;;;;;;;10.75;9.13;;;16.40;99.90;;;;;;5094286;28;20482;-25
2023/05/06 08:49:20;;;;;;;11.43;9.45;;;16.60;99.90;;;;;;5094167;28;20504;-25
2023/05/06 08:51:49;;;;;;;11.38;8.48;;;16.80;99.90;;;;;;5094254;28;20052;-25
2023/05/06 08:54:17;;;;;;;13.13;8.93;;;16.90;99.90;;;;;;5076623;28;20123;-25
2023/05/06 08:56:47;;;;;;;12.13;8.35;;;17.30;99.90;;;;;;5094461;28;20044;-25
2023/05/06 08:59:12;;;;;;;10.70;9.40;;;18.10;99.90;;;;;;5094453;28;20040;-25
2023/05/06 09:01:39;;;;;;;10.45;7.95;;;18.80;99.90;;;;;;5094680;28;20040;-25
2023/05/06 09:04:08;;;;;;;10.48;8.77;;;20.00;99.90;;;;;;5094351;28;20050;-25
2023/05/06 09:06:34;;;;;;;10.15;8.95;;;20.20;99.90;;;;;;5093083;28;20138;-24
2023/05/06 09:08:59;;;;;;;10.23;8.25;;;20.70;99.90;;;;;;5095125;28;20071;-24
2023/05/06 09:11:28;;;;;;;9.77;8.05;;;21.10;99.90;;;;;;5094343;28;20469;-25
2023/05/06 09:14:15;;;;;;;8.18;7.30;;;21.40;99.90;;;;;;5094757;28;20087;-25
2023/05/06 09:16:46;;;;;;;9.70;7.60;;;21.40;99.90;;;;;;5094021;28;20451;-25
2023/05/06 09:19:13;;;;;;;9.45;7.63;;;21.60;96.70;;;;;;5094043;28;20055;-25
2023/05/06 09:21:41;;;;;;;8.73;7.55;;;21.60;99.90;;;;;;5094665;28;20052;-24
2023/05/06 09:24:09;;;;;;;9.68;7.88;;;21.80;99.90;;;;;;5092439;28;20405;-25
2023/05/06 09:26:37;;;;;;;8.30;6.90;;;22.30;1.00;;;;;;5093418;28;20436;-25
2023/05/06 09:29:04;;;;;;;8.52;6.60;;;22.70;99.90;;;;;;5094019;28;20482;-25
2023/05/06 09:31:30;;;;;;;6.70;5.78;;;22.80;99.90;;;;;;5092979;28;20087;-25
2023/05/06 09:33:58;;;;;;;7.15;6.43;;;23.30;1.00;;;;;;5093590;28;20051;-25
2023/05/06 09:36:26;;;;;;;6.97;6.28;;;23.50;1.00;;;;;;5093863;28;20135;-25
2023/05/06 09:38:55;;;;;;;8.07;6.28;;;23.50;99.90;;;;;;5075763;28;20506;-25
2023/05/06 09:41:26;;;;;;;6.88;5.53;;;23.80;99.90;;;;;;5092681;28;20070;-26
2023/05/06 09:43:53;;;;;;;6.97;5.68;;;23.60;1.00;;;;;;5093197;28;20123;-25
2023/05/06 09:46:24;;;;;;;6.45;5.82;;;23.70;99.90;;;;;;5093889;28;20101;-25
2023/05/06 09:48:51;;;;;;;9.60;6.38;;;23.80;1.00;;;;;;5092677;28;20129;-25
2023/05/06 09:51:17;;;;;;;5.43;4.93;;;;;;;;;;5075757;28;20060;-25
2023/05/06 09:53:44;;;;;;;8.45;5.43;;;24.70;34.80;;;;;;5093504;28;20109;-25
2023/05/06 09:56:11;;;;;;;7.50;5.88;;;25.00;1.00;;;;;;5093619;28;20051;-25
2023/05/06 09:58:37;;;;;;;5.85;4.97;;;25.10;1.00;;;;;;5092481;28;20050;-25
2023/05/06 10:01:05;;;;;;;6.35;5.65;;;24.90;99.90;;;;;;5096229;28;20056;-25
2023/05/06 10:03:31;;;;;;;7.50;5.78;;;24.60;99.90;;;;;;5097844;28;20040;-25
2023/05/06 10:06:00;;;;;;;9.68;6.38;;;24.50;99.90;;;;;;5097774;28;20127;-25
2023/05/06 10:08:27;;;;;;;12.30;7.15;;;23.90;99.90;;;;;;5096482;28;20101;-26
2023/05/06 10:10:53;;;;;;;6.90;6.15;;;24.10;89.50;;;;;;5097784;28;20082;-25
2023/05/06 10:13:20;;;;;;;7.82;6.40;;;24.50;99.90;;;;;;5098244;28;20056;-25
2023/05/06 10:15:47;;;;;;;5.95;5.32;;;25.00;99.90;;;;;;5080202;28;20130;-25
2023/05/06 10:18:18;;;;;;;8.40;6.60;;;25.10;99.90;;;;;;5096488;28;20160;-25
2023/05/06 10:20:45;;;;;;;6.78;5.78;;;25.60;39.10;;;;;;5097979;28;20051;-26
2023/05/06 10:23:39;;;;;;;6.05;5.45;;;25.60;1.00;;;;;;5097113;28;20063;-26
2023/05/06 10:26:09;;;;;;;8.68;5.82;;;26.00;1.00;;;;;;5095283;28;20128;-26
2023/05/06 10:28:42;;;;;;;7.55;6.75;;;24.90;1.00;;;;;;5097359;28;20047;-26
2023/05/06 10:31:12;;;;;;;7.10;6.25;;;23.70;1.00;;;;;;5097273;28;20052;-25
2023/05/06 10:33:39;;;;;;;8.00;7.20;;;22.60;58.60;;;;;;5096500;28;20040;-26
2023/05/06 10:36:18;;;;;;;7.68;6.90;;;21.60;99.90;;;;;;5090714;28;20051;-25
2023/05/06 10:38:49;;;;;;;9.50;7.13;;;20.80;16.90;;;;;;5093355;28;20044;-25
2023/05/06 10:41:16;;;;;;;7.60;6.63;;;20.30;99.90;;;;;;5096514;28;20043;-24
2023/05/06 10:43:43;;;;;;;10.88;7.75;;;19.90;1.00;;;;;;5088767;28;20044;-24
2023/05/06 10:46:12;;;;;;;8.50;7.32;;;19.50;1.00;;;;;;5085367;28;20044;-25
2023/05/06 10:48:58;;;;;;;9.55;8.55;;;19.20;99.90;;;;;;5079264;28;20559;-25
2023/05/06 10:51:26;;;;;;;11.55;9.77;;;18.90;99.90;;;;;;5076634;28;20048;-26
2023/05/06 10:54:08;;;;;;;9.73;7.13;;;18.60;99.90;;;;;;5075323;28;20503;-26
2023/05/06 10:56:39;;;;;;;9.32;7.75;;;18.50;1.00;;;;;;5076584;28;20048;-26
2023/05/06 10:59:08;;;;;;;25.38;12.43;;;18.40;1.00;;;;;;5075336;28;20044;-26
2023/05/06 11:01:35;;;;;;;22.25;13.23;;;18.40;1.00;;;;;;5076554;28;20094;-26
2023/05/06 11:04:08;;;;;;;76.22;27.10;;;18.30;99.90;;;;;;5077243;28;20048;-26
2023/05/06 11:06:36;;;;;;;15.23;10.48;;;18.50;99.90;;;;;;5075100;28;20052;-26
2023/05/06 11:09:05;;;;;;;10.85;8.40;;;18.60;99.90;;;;;;5092455;28;20052;-26
2023/05/06 11:12:01;;;;;;;9.93;8.65;;;18.70;99.90;;;;;;5091923;28;20048;-26
2023/05/06 11:14:36;;;;;;;11.15;8.60;;;18.70;99.90;;;;;;5040381;28;20091;-26
2023/05/06 11:17:02;;;;;;;10.13;8.48;;;18.80;1.00;;;;;;5077091;28;20044;-26
2023/05/06 11:19:29;;;;;;;12.43;9.50;;;18.80;1.00;;;;;;5076094;28;20041;-26
2023/05/06 11:21:59;;;;;;;9.75;8.15;;;18.80;2.40;;;;;;5076162;28;20056;-26
2023/05/06 11:24:43;;;;;;;13.70;9.32;;;18.80;38.60;;;;;;5058306;28;20055;-26
2023/05/06 11:27:10;;;;;;;11.80;9.63;;;18.80;99.90;;;;;;5075984;28;20117;-25
2023/05/06 11:29:36;;;;;;;10.40;9.15;;;18.80;99.90;;;;;;5076771;28;20045;-26
2023/05/06 11:32:04;;;;;;;13.35;10.30;;;18.90;99.90;;;;;;5058104;28;20084;-25
2023/05/06 11:34:31;;;;;;;70.85;30.05;;;18.90;99.90;;;;;;5074902;28;20041;-26
2023/05/06 11:37:02;;;;;;;14.27;10.98;;;19.00;99.90;;;;;;5076688;28;20052;-25
2023/05/06 11:39:30;;;;;;;21.13;12.90;;;18.90;99.90;;;;;;5057569;28;20044;-26
2023/05/06 11:42:02;;;;;;;13.52;11.20;;;18.80;99.90;;;;;;5075706;28;20052;-25
2023/05/06 11:44:33;;;;;;;19.98;13.80;;;18.70;99.90;;;;;;5058771;28;20056;-25
2023/05/06 11:47:03;;;;;;;12.00;10.75;;;18.50;99.90;;;;;;5075309;28;20044;-26
2023/05/06 11:49:29;;;;;;;12.82;11.25;;;18.30;99.90;;;;;;5058082;28;20044;-26
2023/05/06 11:51:58;;;;;;;15.23;11.80;;;18.20;1.00;;;;;;5057712;28;20104;-26
2023/05/06 11:54:25;;;;;;;15.48;12.35;;;18.00;1.00;;;;;;5075483;28;20143;-26
2023/05/06 11:56:55;;;;;;;17.55;13.38;;;17.70;54.50;;;;;;5075114;28;20506;-25
2023/05/06 11:59:31;;;;;;;20.98;13.82;;;17.30;99.90;;;;;;5074155;28;20037;-24
2023/05/06 12:01:59;;;;;;;13.00;8.02;;;16.60;99.90;;;;;;5074988;28;20049;-25
2023/05/06 12:04:25;;;;;;;14.68;8.80;;;16.00;99.90;;;;;;5075305;28;20056;-25
2023/05/06 12:06:52;;;;;;;12.68;7.90;;;15.60;99.90;;;;;;5075213;28;20049;-25
2023/05/06 12:09:21;;;;;;;5.47;3.13;;;15.30;99.90;;;;;;5075172;28;20051;-25
2023/05/06 12:11:47;;;;;;;5.20;3.10;;;14.70;99.90;;;;;;5074143;28;20044;-25
2023/05/06 12:14:13;;;;;;;10.45;5.75;;;14.50;99.90;;;;;;5075666;28;20052;-24
2023/05/06 12:16:40;;;;;;;14.23;8.25;;;14.40;99.90;;;;;;5074876;28;20044;-24
2023/05/06 12:19:06;;;;;;;10.65;6.38;;;14.50;99.90;;;;;;5074617;28;20052;-24
2023/05/06 12:21:36;;;;;;;8.27;4.13;;;14.80;99.90;;;;;;5074910;28;20076;-24
2023/05/06 12:24:02;;;;;;;17.33;6.18;;;15.00;99.90;;;;;;5074002;28;20110;-24
2023/05/06 12:26:47;;;;;;;9.20;6.13;;;15.10;99.90;;;;;;5074799;28;20048;-25
2023/05/06 12:29:18;;;;;;;4.78;1.63;;;15.20;99.90;;;;;;5074858;28;20047;-24
2023/05/06 12:31:46;;;;;;;3.00;1.67;;;15.20;99.90;;;;;;5075624;28;20048;-24
2023/05/06 12:34:13;;;;;;;4.72;2.45;;;15.30;99.90;;;;;;5074502;28;20044;-24